Time;durP1;ratioP1;P1;durP2;ratioP2;P2;SDS_P1;SDS_P2;PMS_P1;PMS_P2;Temp;Humidity;BMP_temperature;BMP_pressure;BME280_temperature;BME280_humidity;BME280_pressure;Samples;Min_cycle;Max_cycle;Signal;HPM_P1;HPM_P2
2021/04/12 02:36:55;;;;;;;9.68;5.05;;;0.00;99.90;;;;;;6012571;23;19921;31
2021/04/12 02:39:38;;;;;;;12.52;5.07;;;0.00;99.90;;;;;;4951699;29;20130;-80
2021/04/12 02:42:12;;;;;;;13.02;4.63;;;0.10;99.90;;;;;;4955156;29;20130;-80
2021/04/12 02:44:54;;;;;;;11.82;6.50;;;0.10;99.90;;;;;;4955609;29;20048;-80
2021/04/12 02:47:57;;;;;;;6.88;4.20;;;0.10;99.90;;;;;;4956210;29;20051;-80
2021/04/12 02:50:44;;;;;;;8.93;4.57;;;0.00;99.90;;;;;;4955648;29;20059;-80
2021/04/12 02:53:17;;;;;;;7.25;4.43;;;0.10;99.90;;;;;;4937783;29;20054;-80
2021/04/12 02:56:08;;;;;;;9.35;4.68;;;0.10;99.90;;;;;;4953734;29;20051;-80
2021/04/12 02:58:57;;;;;;;7.85;4.47;;;0.00;99.90;;;;;;4953565;29;20134;-80
2021/04/12 03:01:36;;;;;;;9.38;4.60;;;0.00;99.90;;;;;;4951625;29;20055;-78
2021/04/12 04:35:24;;;;;;;9.93;4.43;;;-0.40;99.90;;;;;;5074283;23;19915;-82
2021/04/12 07:26:55;;;;;;;8.30;4.25;;;7.40;99.90;;;;;;5408586;23;20258;-91
2021/04/12 07:30:01;;;;;;;9.23;4.25;;;10.60;99.90;;;;;;4939281;29;20142;-91
2021/04/12 07:32:38;;;;;;;;;;;13.40;99.90;;;;;;4931398;29;20087;-88
2021/04/12 07:35:20;;;;;;;8.02;3.95;;;15.50;99.90;;;;;;4939005;29;19926;-87
2021/04/12 07:38:35;;;;;;;8.15;4.93;;;16.90;98.50;;;;;;4939213;29;20062;-86
2021/04/12 07:41:28;;;;;;;5.77;4.13;;;17.80;87.60;;;;;;4938822;29;20366;-86
2021/04/12 07:44:36;;;;;;;10.98;5.00;;;16.40;78.80;;;;;;4938778;29;20051;-87
2021/04/12 07:47:44;;;;;;;11.10;5.22;;;13.90;88.30;;;;;;4917909;29;20054;-87
2021/04/12 07:50:37;;;;;;;9.85;5.00;;;11.20;95.90;;;;;;4938600;29;20700;-88
2021/04/12 07:53:57;;;;;;;12.35;6.40;;;9.30;99.90;;;;;;4937484;29;20055;-89
2021/04/12 07:56:55;;;;;;;11.23;6.35;;;7.80;99.90;;;;;;4860057;29;20479;-89
2021/04/12 07:59:54;;;;;;;12.95;8.15;;;6.70;99.90;;;;;;4862005;29;20054;-89
2021/04/12 08:02:57;;;;;;;13.50;7.57;;;6.00;99.90;;;;;;4861973;29;20060;-89
2021/04/12 08:08:39;;;;;;;11.73;7.55;;;4.70;99.90;;;;;;5005544;23;20055;-84
2021/04/12 10:42:53;;;;;;;6.20;1.50;;;6.70;99.90;;;;;;5458361;23;20072;-84
2021/04/12 10:45:22;;;;;;;2.92;1.83;;;6.90;99.90;;;;;;4949871;29;20051;-86
2021/04/12 10:47:55;;;;;;;4.40;1.60;;;7.00;99.90;;;;;;4949392;29;20411;-84
2021/04/12 10:50:27;;;;;;;2.50;1.23;;;6.90;99.90;;;;;;4943617;29;20110;-85
2021/04/12 10:53:04;;;;;;;3.00;1.58;;;6.90;99.90;;;;;;4941032;29;20056;-83
2021/04/12 10:55:32;;;;;;;3.05;1.60;;;6.80;99.90;;;;;;4957281;29;20389;-84
2021/04/12 10:58:24;;;;;;;1.83;0.73;;;6.60;99.90;;;;;;4962792;29;20076;-83
2021/04/12 11:01:01;;;;;;;3.70;0.70;;;6.50;99.90;;;;;;4956639;29;20051;-83
2021/04/12 11:16:36;;;;;;;3.05;0.60;;;6.60;92.80;;;;;;6006747;23;20030;-81
2021/04/12 11:19:23;;;;;;;1.02;0.52;;;6.50;92.70;;;;;;4957132;28;20052;-82
2021/04/12 11:24:49;;;;;;;1.40;0.70;;;6.80;91.80;;;;;;5035733;23;20032;-81
2021/04/12 11:27:54;;;;;;;2.38;0.60;;;6.80;88.80;;;;;;5027045;23;20107;-82
2021/04/12 11:30:23;;;;;;;4.53;0.77;;;6.70;86.30;;;;;;4953837;29;20135;-82
2021/04/12 11:41:16;;;;;;;0.95;0.52;;;6.60;91.80;;;;;;5236017;23;20055;-82
2021/04/12 11:43:43;;;;;;;;;;;6.60;88.80;;;;;;4956870;29;20095;-82
2021/04/12 11:46:16;;;;;;;1.95;0.75;;;6.70;91.60;;;;;;4942943;29;19927;-82
2021/04/12 11:48:48;;;;;;;2.22;1.10;;;6.70;93.70;;;;;;4939152;29;20385;-84
2021/04/12 11:51:19;;;;;;;2.25;0.93;;;6.80;94.70;;;;;;4938859;29;20065;-84
2021/04/12 11:53:49;;;;;;;1.90;0.75;;;6.80;94.40;;;;;;4942577;29;20346;-83
2021/04/12 11:56:30;;;;;;;2.33;0.60;;;6.80;85.40;;;;;;4967351;29;20115;-82
2021/04/12 11:58:59;;;;;;;0.98;0.40;;;6.80;81.10;;;;;;4979763;29;20046;-82
2021/04/12 12:04:08;;;;;;;2.42;0.77;;;6.60;80.20;;;;;;5397152;23;20043;-83
2021/04/12 12:11:49;;;;;;;4.55;0.52;;;6.40;78.80;;;;;;5178558;23;20055;-81
2021/04/12 12:14:22;;;;;;;5.13;0.70;;;6.40;81.60;;;;;;4960758;29;20520;-82
2021/04/12 12:16:48;;;;;;;6.20;1.60;;;6.50;80.10;;;;;;4961138;28;20042;-82
2021/04/12 12:19:22;;;;;;;3.03;0.90;;;6.50;84.90;;;;;;4959755;28;20054;-80
2021/04/12 12:21:51;;;;;;;4.50;0.63;;;6.70;81.50;;;;;;4948160;28;20057;-79
2021/04/12 12:24:19;;;;;;;2.47;0.70;;;6.90;81.10;;;;;;4947325;29;20055;-81
2021/04/12 12:26:53;;;;;;;3.28;0.93;;;7.00;84.70;;;;;;4966424;29;20051;-80
2021/04/12 12:29:21;;;;;;;0.70;0.40;;;7.20;79.10;;;;;;4969980;29;20051;-80
2021/04/12 12:32:14;;;;;;;1.42;0.30;;;7.30;76.80;;;;;;4968467;28;20058;-80
2021/04/12 12:34:47;;;;;;;3.08;0.60;;;7.20;79.00;;;;;;4957916;29;20095;-80
2021/04/12 12:37:20;;;;;;;1.35;0.50;;;7.20;79.30;;;;;;4963195;29;20065;-83
2021/04/12 12:39:51;;;;;;;3.72;0.50;;;7.20;77.50;;;;;;4961569;29;20391;-83
2021/04/12 12:42:22;;;;;;;4.00;0.82;;;7.20;82.00;;;;;;4963225;28;20061;-84
2021/04/12 12:44:49;;;;;;;2.30;0.52;;;7.20;79.20;;;;;;4964440;29;20070;-83
2021/04/12 12:47:17;;;;;;;1.08;0.55;;;7.20;81.60;;;;;;4960854;29;20051;-84
2021/04/12 12:49:46;;;;;;;1.50;0.80;;;7.10;79.50;;;;;;4959644;29;20137;-82
2021/04/12 12:52:14;;;;;;;5.80;0.68;;;7.10;80.40;;;;;;4957035;29;20051;-83
2021/04/12 12:54:44;;;;;;;1.35;0.40;;;7.20;83.30;;;;;;4956609;29;20051;-85
2021/04/12 12:57:22;;;;;;;1.80;0.45;;;7.40;75.40;;;;;;4956812;29;20065;-86
2021/04/12 12:59:51;;;;;;;1.15;0.40;;;7.40;76.30;;;;;;4956950;29;20050;-87
2021/04/12 13:02:23;;;;;;;1.48;0.68;;;7.40;74.90;;;;;;4956469;29;20051;-86
2021/04/12 13:04:54;;;;;;;1.17;0.43;;;7.50;78.00;;;;;;4956817;29;20051;-87
2021/04/12 13:07:21;;;;;;;2.85;0.50;;;7.50;75.60;;;;;;4956731;29;20051;-85
2021/04/12 13:09:53;;;;;;;1.30;0.47;;;7.60;75.60;;;;;;4956648;29;20051;-84
2021/04/12 13:12:21;;;;;;;1.52;0.45;;;7.60;74.50;;;;;;4956362;28;20070;-86
2021/04/12 13:14:49;;;;;;;2.35;0.45;;;7.60;70.30;;;;;;4956429;29;20380;-87
2021/04/12 13:17:18;;;;;;;3.90;0.50;;;7.70;71.50;;;;;;4956673;29;20133;-87
2021/04/12 13:19:46;;;;;;;2.30;0.60;;;7.60;69.50;;;;;;4956413;29;20055;-88
2021/04/12 13:22:14;;;;;;;1.08;0.50;;;7.60;76.00;;;;;;4956518;29;20093;-85
2021/04/12 13:24:40;;;;;;;1.85;0.70;;;7.60;75.30;;;;;;4955138;29;20043;-87
2021/04/12 13:27:08;;;;;;;0.82;0.50;;;7.60;74.00;;;;;;4956221;29;20109;-87
2021/04/12 13:29:42;;;;;;;6.53;2.53;;;7.50;71.90;;;;;;4956280;29;20089;-87
2021/04/12 13:32:11;;;;;;;1.90;1.13;;;7.50;75.60;;;;;;4939850;29;20055;-87
2021/04/12 13:34:41;;;;;;;1.00;0.57;;;7.50;75.10;;;;;;4937022;29;20441;-84
2021/04/12 13:37:12;;;;;;;1.27;0.40;;;7.50;72.60;;;;;;4937631;29;20058;-84
2021/04/12 13:39:40;;;;;;;2.28;0.82;;;7.40;72.50;;;;;;4937055;29;20362;-84
2021/04/12 13:42:25;;;;;;;0.98;0.50;;;7.40;74.00;;;;;;4937416;29;20051;-87
2021/04/12 13:44:55;;;;;;;0.63;0.38;;;7.50;73.20;;;;;;4936873;29;20054;-87
2021/04/12 13:47:25;;;;;;;1.10;0.45;;;7.50;73.50;;;;;;4937018;29;20055;-88
2021/04/12 13:49:53;;;;;;;0.32;0.30;;;7.70;69.70;;;;;;4937102;29;20055;-87
2021/04/12 13:52:22;;;;;;;1.75;0.50;;;7.80;69.40;;;;;;4936932;29;20056;-88
2021/04/12 13:54:53;;;;;;;3.53;0.70;;;7.90;72.10;;;;;;4950132;29;20098;-87
2021/04/12 13:57:29;;;;;;;2.38;0.75;;;7.90;67.90;;;;;;4960073;29;20051;-88
2021/04/12 13:59:58;;;;;;;1.02;0.65;;;7.90;72.50;;;;;;4960202;29;20379;-88
2021/04/12 14:02:27;;;;;;;3.20;0.80;;;7.90;71.20;;;;;;4960178;29;20391;-88
2021/04/12 14:04:55;;;;;;;2.03;0.93;;;7.90;70.50;;;;;;4959592;29;20051;-88
2021/04/12 14:07:25;;;;;;;1.30;0.55;;;8.10;71.70;;;;;;4959956;29;20055;-88
2021/04/12 14:09:53;;;;;;;7.25;0.82;;;8.20;69.40;;;;;;4959618;29;20047;-88
2021/04/12 14:12:21;;;;;;;1.23;0.63;;;8.20;73.80;;;;;;4959627;28;20063;-88
2021/04/12 14:14:50;;;;;;;2.67;0.68;;;8.30;72.60;;;;;;4959618;29;20051;-88
2021/04/12 14:17:21;;;;;;;2.83;0.90;;;8.40;69.80;;;;;;4959561;29;20059;-88
2021/04/12 14:19:50;;;;;;;1.15;1.05;;;8.40;67.20;;;;;;4959545;29;20061;-88
2021/04/12 14:22:19;;;;;;;2.58;0.40;;;8.50;70.00;;;;;;4959399;29;20062;-87
2021/04/12 14:24:48;;;;;;;3.60;0.40;;;8.50;73.80;;;;;;4959058;29;20167;-88
2021/04/12 14:27:20;;;;;;;4.55;0.60;;;8.50;68.40;;;;;;4959252;29;20059;-88
2021/04/12 14:29:48;;;;;;;2.60;0.80;;;8.50;68.80;;;;;;4959436;29;20512;-88
2021/04/12 14:32:18;;;;;;;1.65;0.77;;;8.50;70.00;;;;;;4959149;29;20051;-88
2021/04/12 14:34:47;;;;;;;0.93;0.55;;;8.50;70.80;;;;;;4958908;29;20051;-88
2021/04/12 14:37:16;;;;;;;1.13;0.40;;;8.60;70.40;;;;;;4959327;29;20057;-88
2021/04/12 14:39:43;;;;;;;1.70;0.73;;;8.60;68.20;;;;;;4959241;29;20388;-88
2021/04/12 14:42:11;;;;;;;1.73;0.70;;;8.60;69.10;;;;;;4959294;29;20061;-88
2021/04/12 14:44:40;;;;;;;0.32;0.30;;;8.60;68.50;;;;;;4958749;29;20059;-88
2021/04/12 14:47:12;;;;;;;1.48;0.50;;;8.50;65.20;;;;;;4958878;29;20472;-88
2021/04/12 14:49:41;;;;;;;0.98;0.50;;;8.50;69.30;;;;;;4958953;29;20066;-88
2021/04/12 14:52:13;;;;;;;2.35;0.38;;;8.40;68.50;;;;;;4959100;29;20066;-88
2021/04/12 14:54:40;;;;;;;1.20;0.65;;;8.40;63.60;;;;;;4958437;29;20047;-88
2021/04/12 14:57:10;;;;;;;2.95;0.80;;;8.30;66.00;;;;;;4958735;29;20051;-88
2021/04/12 14:59:38;;;;;;;2.13;0.40;;;8.30;70.00;;;;;;4958616;29;20047;-88
2021/04/12 15:02:07;;;;;;;1.77;0.63;;;8.30;67.80;;;;;;4958474;29;20055;-88
2021/04/12 15:04:34;;;;;;;1.80;0.57;;;8.40;69.20;;;;;;4957535;28;20088;-88
2021/04/12 15:07:05;;;;;;;1.90;0.43;;;8.50;68.10;;;;;;4958387;29;20055;-88
2021/04/12 15:09:35;;;;;;;1.52;0.47;;;8.60;66.90;;;;;;4958586;29;20090;-88
2021/04/12 15:12:04;;;;;;;3.80;0.60;;;8.70;67.50;;;;;;4958399;28;20469;-90
2021/04/12 15:14:34;;;;;;;2.38;0.77;;;8.70;67.60;;;;;;4958077;29;20142;-88
2021/04/12 15:17:07;;;;;;;3.65;0.57;;;8.70;65.20;;;;;;4958310;29;20620;-87
2021/04/12 15:19:34;;;;;;;4.18;0.50;;;8.70;64.70;;;;;;4958424;29;20105;-87
2021/04/12 15:22:03;;;;;;;2.58;0.70;;;8.60;66.80;;;;;;4958375;29;20085;-88
2021/04/12 15:24:34;;;;;;;2.25;0.55;;;8.60;66.40;;;;;;4958011;29;20051;-88
2021/04/12 15:27:02;;;;;;;2.75;0.95;;;8.50;69.10;;;;;;4942609;29;20056;-86
2021/04/12 15:29:36;;;;;;;0.63;0.40;;;8.50;65.20;;;;;;4939102;29;20048;-88
2021/04/12 15:32:12;;;;;;;0.87;0.50;;;8.40;63.90;;;;;;4939263;29;20118;-88
2021/04/12 15:34:40;;;;;;;2.72;1.10;;;8.40;67.80;;;;;;4939175;29;20051;-87
2021/04/12 15:37:14;;;;;;;2.50;0.45;;;8.30;66.10;;;;;;4938890;29;20114;-90
2021/04/12 15:39:42;;;;;;;0.70;0.20;;;8.30;67.40;;;;;;4938720;29;20047;-85
2021/04/12 15:42:13;;;;;;;3.28;0.65;;;8.30;68.20;;;;;;4938863;29;20056;-88
2021/04/12 15:44:41;;;;;;;0.95;0.50;;;8.30;69.40;;;;;;4938565;29;20051;-88
2021/04/12 15:47:09;;;;;;;0.65;0.35;;;8.30;68.30;;;;;;4938618;29;20052;-88
2021/04/12 15:49:37;;;;;;;2.38;0.55;;;8.30;65.80;;;;;;4938543;29;20061;-88
2021/04/12 15:52:07;;;;;;;5.05;0.98;;;8.30;65.70;;;;;;4938695;29;20055;-89
2021/04/12 15:54:34;;;;;;;2.63;0.65;;;8.20;66.00;;;;;;4946214;29;20456;-89
2021/04/12 15:57:03;;;;;;;0.95;0.60;;;8.20;66.00;;;;;;4958074;29;20055;-89
2021/04/12 15:59:32;;;;;;;0.68;0.40;;;8.00;67.20;;;;;;4957226;29;20055;-89
2021/04/12 16:01:59;;;;;;;1.70;0.30;;;7.90;69.50;;;;;;4957759;29;20051;-86
2021/04/12 16:04:31;;;;;;;1.92;0.68;;;7.90;67.90;;;;;;4957494;29;20065;-86
2021/04/12 16:07:07;;;;;;;1.65;0.30;;;7.90;69.40;;;;;;4957433;29;20460;-86
2021/04/12 16:09:38;;;;;;;3.47;1.50;;;7.80;68.80;;;;;;4957739;29;20129;-86
2021/04/12 16:12:10;;;;;;;0.77;0.38;;;7.70;68.70;;;;;;4957541;28;20047;-86
2021/04/12 16:14:40;;;;;;;1.02;0.50;;;7.60;69.30;;;;;;4957310;29;20053;-85
2021/04/12 16:17:09;;;;;;;1.55;0.80;;;7.60;69.70;;;;;;4956422;28;20066;-85
2021/04/12 16:19:38;;;;;;;7.20;1.90;;;7.70;70.30;;;;;;4957264;29;20050;-85
2021/04/12 16:22:14;;;;;;;2.85;0.50;;;7.80;68.90;;;;;;4944570;29;20052;-86
2021/04/12 16:24:41;;;;;;;1.02;0.70;;;7.80;69.00;;;;;;4937959;29;20066;-86
2021/04/12 16:27:12;;;;;;;1.40;0.73;;;7.80;71.10;;;;;;4938193;29;20051;-86
2021/04/12 16:29:45;;;;;;;2.70;0.47;;;7.80;73.60;;;;;;4938101;29;20117;-87
2021/04/12 16:32:22;;;;;;;2.03;0.70;;;7.70;70.90;;;;;;4938259;29;20078;-86
2021/04/12 16:34:55;;;;;;;2.85;1.20;;;7.50;71.00;;;;;;4938138;29;20052;-84
2021/04/12 16:37:21;;;;;;;1.77;0.95;;;7.50;71.60;;;;;;4938161;29;20051;-85
2021/04/12 16:39:48;;;;;;;1.45;1.00;;;7.50;70.80;;;;;;4938123;29;20067;-84
2021/04/12 16:42:20;;;;;;;3.47;0.82;;;7.50;70.60;;;;;;4938617;29;20372;-84
2021/04/12 16:44:48;;;;;;;2.75;0.63;;;7.50;70.90;;;;;;4938794;29;20475;-83
2021/04/12 16:47:15;;;;;;;1.63;0.40;;;7.50;68.80;;;;;;4938379;29;20047;-84
2021/04/12 16:49:43;;;;;;;0.85;0.57;;;7.50;70.10;;;;;;4939392;29;20109;-86
2021/04/12 16:52:12;;;;;;;3.83;0.80;;;7.60;71.80;;;;;;4937849;29;20047;-84
2021/04/12 16:54:42;;;;;;;2.55;0.40;;;7.50;68.70;;;;;;4937184;29;20519;-86
2021/04/12 16:57:10;;;;;;;5.40;0.88;;;7.60;70.50;;;;;;4937800;29;20047;-86
2021/04/12 16:59:41;;;;;;;3.45;0.40;;;7.50;70.70;;;;;;4937146;29;20051;-84
2021/04/12 17:02:16;;;;;;;2.20;0.60;;;7.60;70.20;;;;;;4937471;29;20480;-84
2021/04/12 17:04:45;;;;;;;1.30;0.60;;;7.50;69.30;;;;;;4937628;29;20382;-85
2021/04/12 17:07:15;;;;;;;10.70;0.68;;;7.50;69.10;;;;;;4937448;29;20485;-85
2021/04/12 17:09:44;;;;;;;1.13;0.50;;;7.40;68.40;;;;;;4937414;29;20059;-84
2021/04/12 17:12:13;;;;;;;1.35;0.60;;;7.40;67.60;;;;;;4937465;29;20500;-85
2021/04/12 17:14:42;;;;;;;0.90;0.50;;;7.40;67.10;;;;;;4937710;29;20044;-84
2021/04/12 17:17:11;;;;;;;0.50;0.22;;;7.40;68.60;;;;;;4937654;29;20373;-84
2021/04/12 17:19:39;;;;;;;2.28;0.50;;;7.30;69.20;;;;;;4937570;29;20051;-84
2021/04/12 17:22:12;;;;;;;2.40;1.13;;;7.30;69.20;;;;;;4937258;29;20061;-85
2021/04/12 17:24:41;;;;;;;1.25;0.43;;;7.20;69.40;;;;;;4937419;29;20163;-84
2021/04/12 17:27:12;;;;;;;1.92;0.40;;;7.10;71.50;;;;;;4937309;29;20465;-84
2021/04/12 17:29:43;;;;;;;4.03;0.52;;;7.10;71.40;;;;;;4943545;29;20052;-82
2021/04/12 17:32:11;;;;;;;2.42;0.55;;;7.00;70.40;;;;;;4928278;29;20052;-82
2021/04/12 17:34:40;;;;;;;3.53;0.52;;;7.00;70.00;;;;;;4925485;29;20052;-83
2021/04/12 17:37:17;;;;;;;1.27;0.50;;;7.00;67.50;;;;;;4925438;29;20056;-83
2021/04/12 17:39:43;;;;;;;0.93;0.30;;;7.00;68.60;;;;;;4925181;29;20083;-83
2021/04/12 17:42:13;;;;;;;1.35;0.30;;;7.00;69.80;;;;;;4925438;29;20052;-83
2021/04/12 17:44:43;;;;;;;1.50;1.13;;;7.00;68.40;;;;;;4925158;29;20056;-79
2021/04/12 17:47:16;;;;;;;3.42;0.68;;;6.80;70.30;;;;;;4925888;29;20055;-82
2021/04/12 17:49:45;;;;;;;4.32;1.00;;;6.90;69.40;;;;;;4925489;29;20484;-82
2021/04/12 17:52:13;;;;;;;1.60;0.80;;;6.90;69.00;;;;;;4926539;29;20491;-83
2021/04/12 17:54:42;;;;;;;3.53;1.13;;;6.80;69.20;;;;;;4927289;29;20044;-82
2021/04/12 17:57:12;;;;;;;1.63;0.68;;;6.80;68.80;;;;;;4932735;29;20378;-82
2021/04/12 17:59:49;;;;;;;4.82;1.45;;;6.80;65.50;;;;;;4941337;29;20059;-82
2021/04/12 18:04:59;;;;;;;9.25;1.80;;;6.70;67.60;;;;;;5452412;23;20115;-83
2021/04/12 18:07:28;;;;;;;2.78;0.70;;;6.70;68.50;;;;;;4958988;29;20055;-83
2021/04/12 18:10:01;;;;;;;2.47;0.80;;;6.60;71.70;;;;;;4960743;29;20056;-83
2021/04/12 18:12:30;;;;;;;2.35;0.90;;;6.60;69.90;;;;;;4963478;29;20115;-81
2021/04/12 18:15:00;;;;;;;2.80;1.15;;;6.50;69.60;;;;;;4962334;29;20056;-81
2021/04/12 18:17:37;;;;;;;1.10;0.70;;;6.50;69.40;;;;;;4966284;29;20079;-82
2021/04/12 18:20:07;;;;;;;2.90;0.70;;;6.50;70.40;;;;;;4966392;29;20103;-81
2021/04/12 18:22:34;;;;;;;5.95;1.00;;;6.40;70.20;;;;;;4966032;29;20067;-81
2021/04/12 18:25:09;;;;;;;1.48;0.68;;;6.40;69.20;;;;;;4977605;28;20035;-81
2021/04/12 19:25:57;;;;;;;0.80;0.43;;;5.30;73.50;;;;;;5945828;23;19921;-78
2021/04/12 19:31:29;;;;;;;1.70;0.70;;;5.30;75.20;;;;;;5038209;23;20035;-82
2021/04/12 19:34:13;;;;;;;;;;;5.30;75.30;;;;;;4960795;28;20044;-83
2021/04/12 19:37:03;;;;;;;3.00;0.80;;;5.10;77.10;;;;;;4961786;28;19969;-83
